sensor_id;sensor_type;location;lat;lon;timestamp;P1;durP1;ratioP1;P2;durP2;ratioP2
60873;SDS011;46715;40.642;-7.920;2023-03-05T00:02:55;25.58;;;17.05;;
60873;SDS011;46715;40.642;-7.920;2023-03-05T00:04:56;28.03;;;18.97;;
60873;SDS011;46715;40.642;-7.920;2023-03-05T00:06:56;30.07;;;19.30;;
60873;SDS011;46715;40.642;-7.920;2023-03-05T00:08:57;26.60;;;19.40;;
60873;SDS011;46715;40.642;-7.920;2023-03-05T00:11:00;28.80;;;19.38;;
60873;SDS011;46715;40.642;-7.920;2023-03-05T00:13:06;27.02;;;19.02;;
60873;SDS011;46715;40.642;-7.920;2023-03-05T00:15:07;28.33;;;20.23;;
60873;SDS011;46715;40.642;-7.920;2023-03-05T00:17:09;32.13;;;20.92;;
60873;SDS011;46715;40.642;-7.920;2023-03-05T00:19:10;28.40;;;19.87;;
60873;SDS011;46715;40.642;-7.920;2023-03-05T00:21:44;29.27;;;21.10;;
60873;SDS011;46715;40.642;-7.920;2023-03-05T00:23:39;41.00;;;24.23;;
60873;SDS011;46715;40.642;-7.920;2023-03-05T00:25:41;37.30;;;23.52;;
60873;SDS011;46715;40.642;-7.920;2023-03-05T00:27:42;37.33;;;23.90;;
60873;SDS011;46715;40.642;-7.920;2023-03-05T00:29:42;40.70;;;23.57;;
60873;SDS011;46715;40.642;-7.920;2023-03-05T00:31:43;26.33;;;18.37;;
60873;SDS011;46715;40.642;-7.920;2023-03-05T00:33:44;20.70;;;15.73;;
60873;SDS011;46715;40.642;-7.920;2023-03-05T00:35:45;22.88;;;15.52;;
60873;SDS011;46715;40.642;-7.920;2023-03-05T00:37:46;22.50;;;15.50;;
60873;SDS011;46715;40.642;-7.920;2023-03-05T00:39:47;26.80;;;17.37;;
60873;SDS011;46715;40.642;-7.920;2023-03-05T00:41:48;27.50;;;16.80;;
60873;SDS011;46715;40.642;-7.920;2023-03-05T00:43:49;22.98;;;16.60;;
60873;SDS011;46715;40.642;-7.920;2023-03-05T00:45:51;22.65;;;16.45;;
60873;SDS011;46715;40.642;-7.920;2023-03-05T00:47:52;26.27;;;16.80;;
60873;SDS011;46715;40.642;-7.920;2023-03-05T00:49:56;25.23;;;17.13;;
60873;SDS011;46715;40.642;-7.920;2023-03-05T00:51:57;24.67;;;16.83;;
60873;SDS011;46715;40.642;-7.920;2023-03-05T00:53:58;26.13;;;16.88;;
60873;SDS011;46715;40.642;-7.920;2023-03-05T00:55:59;23.57;;;17.20;;
60873;SDS011;46715;40.642;-7.920;2023-03-05T00:58:00;23.70;;;14.77;;
60873;SDS011;46715;40.642;-7.920;2023-03-05T01:00:01;25.98;;;15.50;;
60873;SDS011;46715;40.642;-7.920;2023-03-05T01:02:03;24.70;;;16.73;;
60873;SDS011;46715;40.642;-7.920;2023-03-05T01:04:04;23.73;;;16.10;;
60873;SDS011;46715;40.642;-7.920;2023-03-05T01:06:06;21.97;;;17.37;;
60873;SDS011;46715;40.642;-7.920;2023-03-05T01:08:09;24.80;;;16.48;;
60873;SDS011;46715;40.642;-7.920;2023-03-05T01:10:11;23.85;;;17.67;;
60873;SDS011;46715;40.642;-7.920;2023-03-05T01:12:12;24.17;;;18.40;;
60873;SDS011;46715;40.642;-7.920;2023-03-05T01:14:13;27.73;;;18.73;;
60873;SDS011;46715;40.642;-7.920;2023-03-05T01:16:13;27.00;;;19.50;;
60873;SDS011;46715;40.642;-7.920;2023-03-05T01:18:14;37.67;;;20.60;;
60873;SDS011;46715;40.642;-7.920;2023-03-05T01:20:16;32.22;;;20.17;;
60873;SDS011;46715;40.642;-7.920;2023-03-05T01:22:19;32.05;;;18.40;;
60873;SDS011;46715;40.642;-7.920;2023-03-05T01:24:20;30.17;;;19.90;;
60873;SDS011;46715;40.642;-7.920;2023-03-05T01:26:22;30.70;;;19.38;;
60873;SDS011;46715;40.642;-7.920;2023-03-05T01:28:24;28.37;;;18.40;;
60873;SDS011;46715;40.642;-7.920;2023-03-05T01:30:25;26.45;;;17.90;;
60873;SDS011;46715;40.642;-7.920;2023-03-05T01:32:27;22.60;;;16.83;;
60873;SDS011;46715;40.642;-7.920;2023-03-05T01:34:27;23.03;;;16.03;;
60873;SDS011;46715;40.642;-7.920;2023-03-05T01:36:28;24.97;;;16.87;;
60873;SDS011;46715;40.642;-7.920;2023-03-05T01:38:29;28.03;;;19.40;;
60873;SDS011;46715;40.642;-7.920;2023-03-05T01:40:30;22.17;;;16.57;;
60873;SDS011;46715;40.642;-7.920;2023-03-05T01:42:31;26.58;;;16.95;;
60873;SDS011;46715;40.642;-7.920;2023-03-05T01:44:32;23.53;;;16.57;;
60873;SDS011;46715;40.642;-7.920;2023-03-05T01:46:34;29.90;;;18.13;;
60873;SDS011;46715;40.642;-7.920;2023-03-05T01:48:36;22.00;;;14.18;;
60873;SDS011;46715;40.642;-7.920;2023-03-05T01:50:38;19.42;;;13.52;;
60873;SDS011;46715;40.642;-7.920;2023-03-05T01:52:39;21.83;;;14.60;;
60873;SDS011;46715;40.642;-7.920;2023-03-05T01:56:51;22.35;;;15.77;;
60873;SDS011;46715;40.642;-7.920;2023-03-05T01:58:56;20.63;;;14.20;;
60873;SDS011;46715;40.642;-7.920;2023-03-05T02:01:03;19.20;;;13.52;;
60873;SDS011;46715;40.642;-7.920;2023-03-05T02:03:05;19.97;;;13.37;;
60873;SDS011;46715;40.642;-7.920;2023-03-05T02:05:10;16.05;;;12.38;;
60873;SDS011;46715;40.642;-7.920;2023-03-05T02:07:16;18.08;;;11.05;;
60873;SDS011;46715;40.642;-7.920;2023-03-05T02:09:18;17.48;;;11.32;;
60873;SDS011;46715;40.642;-7.920;2023-03-05T02:11:22;17.60;;;11.98;;
60873;SDS011;46715;40.642;-7.920;2023-03-05T02:13:26;17.38;;;12.40;;
60873;SDS011;46715;40.642;-7.920;2023-03-05T02:15:31;15.45;;;10.75;;
60873;SDS011;46715;40.642;-7.920;2023-03-05T02:17:32;14.02;;;10.80;;
60873;SDS011;46715;40.642;-7.920;2023-03-05T02:19:49;13.23;;;9.20;;
60873;SDS011;46715;40.642;-7.920;2023-03-05T02:21:54;9.90;;;6.50;;
60873;SDS011;46715;40.642;-7.920;2023-03-05T02:23:55;10.07;;;5.77;;
60873;SDS011;46715;40.642;-7.920;2023-03-05T02:25:56;7.47;;;5.90;;
60873;SDS011;46715;40.642;-7.920;2023-03-05T02:27:59;8.50;;;6.23;;
60873;SDS011;46715;40.642;-7.920;2023-03-05T02:30:04;13.80;;;7.22;;
60873;SDS011;46715;40.642;-7.920;2023-03-05T02:32:06;8.48;;;6.15;;
60873;SDS011;46715;40.642;-7.920;2023-03-05T02:34:10;17.05;;;9.95;;
60873;SDS011;46715;40.642;-7.920;2023-03-05T02:36:11;15.17;;;11.90;;
60873;SDS011;46715;40.642;-7.920;2023-03-05T02:38:12;19.92;;;13.02;;
60873;SDS011;46715;40.642;-7.920;2023-03-05T02:40:14;16.60;;;12.00;;
60873;SDS011;46715;40.642;-7.920;2023-03-05T02:42:15;15.13;;;10.93;;
60873;SDS011;46715;40.642;-7.920;2023-03-05T02:44:16;14.93;;;8.20;;
60873;SDS011;46715;40.642;-7.920;2023-03-05T02:46:17;8.73;;;5.13;;
60873;SDS011;46715;40.642;-7.920;2023-03-05T02:48:19;8.02;;;6.78;;
60873;SDS011;46715;40.642;-7.920;2023-03-05T02:50:20;10.20;;;6.90;;
60873;SDS011;46715;40.642;-7.920;2023-03-05T02:52:21;10.90;;;7.00;;
60873;SDS011;46715;40.642;-7.920;2023-03-05T02:54:22;11.20;;;8.50;;
60873;SDS011;46715;40.642;-7.920;2023-03-05T02:56:24;20.75;;;10.02;;
60873;SDS011;46715;40.642;-7.920;2023-03-05T02:58:24;15.63;;;9.97;;
60873;SDS011;46715;40.642;-7.920;2023-03-05T03:00:26;15.50;;;11.05;;
60873;SDS011;46715;40.642;-7.920;2023-03-05T03:02:27;19.60;;;11.53;;
60873;SDS011;46715;40.642;-7.920;2023-03-05T03:04:28;20.70;;;11.83;;
60873;SDS011;46715;40.642;-7.920;2023-03-05T03:06:29;21.03;;;12.13;;
60873;SDS011;46715;40.642;-7.920;2023-03-05T03:08:30;17.47;;;12.87;;
60873;SDS011;46715;40.642;-7.920;2023-03-05T03:10:30;19.93;;;14.03;;
60873;SDS011;46715;40.642;-7.920;2023-03-05T03:12:36;18.80;;;13.52;;
60873;SDS011;46715;40.642;-7.920;2023-03-05T03:14:41;17.88;;;12.45;;
60873;SDS011;46715;40.642;-7.920;2023-03-05T03:16:42;19.17;;;13.70;;
60873;SDS011;46715;40.642;-7.920;2023-03-05T03:18:43;20.87;;;12.53;;
60873;SDS011;46715;40.642;-7.920;2023-03-05T03:20:46;16.10;;;10.98;;
60873;SDS011;46715;40.642;-7.920;2023-03-05T03:22:47;15.97;;;10.87;;
60873;SDS011;46715;40.642;-7.920;2023-03-05T03:24:48;18.83;;;11.07;;
60873;SDS011;46715;40.642;-7.920;2023-03-05T03:26:48;16.03;;;12.23;;
60873;SDS011;46715;40.642;-7.920;2023-03-05T03:28:49;16.03;;;11.23;;
60873;SDS011;46715;40.642;-7.920;2023-03-05T03:30:50;11.77;;;9.43;;
60873;SDS011;46715;40.642;-7.920;2023-03-05T03:32:51;14.40;;;9.77;;
60873;SDS011;46715;40.642;-7.920;2023-03-05T03:34:52;15.13;;;9.47;;
60873;SDS011;46715;40.642;-7.920;2023-03-05T03:36:52;12.60;;;9.47;;
60873;SDS011;46715;40.642;-7.920;2023-03-05T03:38:53;11.30;;;7.70;;
60873;SDS011;46715;40.642;-7.920;2023-03-05T03:40:54;9.53;;;5.87;;
60873;SDS011;46715;40.642;-7.920;2023-03-05T03:42:55;10.37;;;6.50;;
60873;SDS011;46715;40.642;-7.920;2023-03-05T03:44:56;12.13;;;6.65;;
60873;SDS011;46715;40.642;-7.920;2023-03-05T03:46:57;9.63;;;6.63;;
60873;SDS011;46715;40.642;-7.920;2023-03-05T03:48:58;10.77;;;7.60;;
60873;SDS011;46715;40.642;-7.920;2023-03-05T03:50:58;12.90;;;7.60;;
60873;SDS011;46715;40.642;-7.920;2023-03-05T03:53:07;10.38;;;7.43;;
60873;SDS011;46715;40.642;-7.920;2023-03-05T03:55:12;11.65;;;6.95;;
60873;SDS011;46715;40.642;-7.920;2023-03-05T03:57:13;9.10;;;6.93;;
60873;SDS011;46715;40.642;-7.920;2023-03-05T03:59:13;9.53;;;6.10;;
60873;SDS011;46715;40.642;-7.920;2023-03-05T04:01:14;8.37;;;5.17;;
60873;SDS011;46715;40.642;-7.920;2023-03-05T04:03:15;8.57;;;4.90;;
60873;SDS011;46715;40.642;-7.920;2023-03-05T04:05:16;6.90;;;5.23;;
60873;SDS011;46715;40.642;-7.920;2023-03-05T04:07:17;9.73;;;5.40;;
60873;SDS011;46715;40.642;-7.920;2023-03-05T04:09:18;5.60;;;4.60;;
60873;SDS011;46715;40.642;-7.920;2023-03-05T04:11:19;8.70;;;5.80;;
60873;SDS011;46715;40.642;-7.920;2023-03-05T04:13:22;9.88;;;5.20;;
60873;SDS011;46715;40.642;-7.920;2023-03-05T04:15:22;10.03;;;5.53;;
60873;SDS011;46715;40.642;-7.920;2023-03-05T04:17:24;9.32;;;6.03;;
60873;SDS011;46715;40.642;-7.920;2023-03-05T04:19:25;7.10;;;5.43;;
60873;SDS011;46715;40.642;-7.920;2023-03-05T04:21:27;11.43;;;5.85;;
60873;SDS011;46715;40.642;-7.920;2023-03-05T04:23:28;7.80;;;5.57;;
60873;SDS011;46715;40.642;-7.920;2023-03-05T04:25:29;7.53;;;5.10;;
60873;SDS011;46715;40.642;-7.920;2023-03-05T04:27:30;7.63;;;5.53;;
60873;SDS011;46715;40.642;-7.920;2023-03-05T04:29:31;5.90;;;4.50;;
60873;SDS011;46715;40.642;-7.920;2023-03-05T04:33:33;10.27;;;4.72;;
60873;SDS011;46715;40.642;-7.920;2023-03-05T04:35:34;6.87;;;4.50;;
60873;SDS011;46715;40.642;-7.920;2023-03-05T04:37:35;5.93;;;4.23;;
60873;SDS011;46715;40.642;-7.920;2023-03-05T04:39:36;7.75;;;4.78;;
60873;SDS011;46715;40.642;-7.920;2023-03-05T04:41:37;6.85;;;3.65;;
60873;SDS011;46715;40.642;-7.920;2023-03-05T04:43:38;5.17;;;4.33;;
60873;SDS011;46715;40.642;-7.920;2023-03-05T04:45:39;7.03;;;3.87;;
60873;SDS011;46715;40.642;-7.920;2023-03-05T04:47:41;6.70;;;4.28;;
60873;SDS011;46715;40.642;-7.920;2023-03-05T04:49:42;5.45;;;3.75;;
60873;SDS011;46715;40.642;-7.920;2023-03-05T04:51:43;6.30;;;3.80;;
60873;SDS011;46715;40.642;-7.920;2023-03-05T04:53:44;6.83;;;3.83;;
60873;SDS011;46715;40.642;-7.920;2023-03-05T04:55:44;5.70;;;4.10;;
60873;SDS011;46715;40.642;-7.920;2023-03-05T04:57:45;6.77;;;4.80;;
60873;SDS011;46715;40.642;-7.920;2023-03-05T04:59:46;6.27;;;4.93;;
60873;SDS011;46715;40.642;-7.920;2023-03-05T05:01:46;6.93;;;4.70;;
60873;SDS011;46715;40.642;-7.920;2023-03-05T05:03:47;6.10;;;4.20;;
60873;SDS011;46715;40.642;-7.920;2023-03-05T05:05:53;4.33;;;3.70;;
60873;SDS011;46715;40.642;-7.920;2023-03-05T05:07:56;4.60;;;3.63;;
60873;SDS011;46715;40.642;-7.920;2023-03-05T05:09:57;5.43;;;3.20;;
60873;SDS011;46715;40.642;-7.920;2023-03-05T05:11:58;4.07;;;3.23;;
60873;SDS011;46715;40.642;-7.920;2023-03-05T05:13:59;6.90;;;3.10;;
60873;SDS011;46715;40.642;-7.920;2023-03-05T05:16:00;3.77;;;2.80;;
60873;SDS011;46715;40.642;-7.920;2023-03-05T05:18:00;3.77;;;3.00;;
60873;SDS011;46715;40.642;-7.920;2023-03-05T05:20:02;5.63;;;3.23;;
60873;SDS011;46715;40.642;-7.920;2023-03-05T05:22:08;4.43;;;3.10;;
60873;SDS011;46715;40.642;-7.920;2023-03-05T05:24:08;5.30;;;3.00;;
60873;SDS011;46715;40.642;-7.920;2023-03-05T05:26:09;3.67;;;2.93;;
60873;SDS011;46715;40.642;-7.920;2023-03-05T05:28:13;5.35;;;2.92;;
60873;SDS011;46715;40.642;-7.920;2023-03-05T05:30:14;4.70;;;3.33;;
60873;SDS011;46715;40.642;-7.920;2023-03-05T05:32:18;3.30;;;2.77;;
60873;SDS011;46715;40.642;-7.920;2023-03-05T05:34:22;3.80;;;2.33;;
60873;SDS011;46715;40.642;-7.920;2023-03-05T05:36:24;5.15;;;2.47;;
60873;SDS011;46715;40.642;-7.920;2023-03-05T05:38:25;4.10;;;2.53;;
60873;SDS011;46715;40.642;-7.920;2023-03-05T05:40:26;5.57;;;2.80;;
60873;SDS011;46715;40.642;-7.920;2023-03-05T05:42:27;2.30;;;2.10;;
60873;SDS011;46715;40.642;-7.920;2023-03-05T05:44:28;3.63;;;2.55;;
60873;SDS011;46715;40.642;-7.920;2023-03-05T05:46:29;4.30;;;2.63;;
60873;SDS011;46715;40.642;-7.920;2023-03-05T05:48:31;5.10;;;2.60;;
60873;SDS011;46715;40.642;-7.920;2023-03-05T05:50:33;3.40;;;2.47;;
60873;SDS011;46715;40.642;-7.920;2023-03-05T05:52:34;5.20;;;2.20;;
60873;SDS011;46715;40.642;-7.920;2023-03-05T05:54:34;3.63;;;2.47;;
60873;SDS011;46715;40.642;-7.920;2023-03-05T05:56:35;3.73;;;2.57;;
60873;SDS011;46715;40.642;-7.920;2023-03-05T05:58:37;3.97;;;2.40;;
60873;SDS011;46715;40.642;-7.920;2023-03-05T06:00:39;4.07;;;2.47;;
60873;SDS011;46715;40.642;-7.920;2023-03-05T06:02:40;3.00;;;2.15;;
60873;SDS011;46715;40.642;-7.920;2023-03-05T06:06:43;5.20;;;2.30;;
60873;SDS011;46715;40.642;-7.920;2023-03-05T06:08:44;4.63;;;2.37;;
60873;SDS011;46715;40.642;-7.920;2023-03-05T06:10:51;4.93;;;2.05;;
60873;SDS011;46715;40.642;-7.920;2023-03-05T06:12:53;3.95;;;2.28;;
60873;SDS011;46715;40.642;-7.920;2023-03-05T06:14:54;3.60;;;2.20;;
60873;SDS011;46715;40.642;-7.920;2023-03-05T06:16:54;3.43;;;2.60;;
60873;SDS011;46715;40.642;-7.920;2023-03-05T06:18:55;4.97;;;2.50;;
60873;SDS011;46715;40.642;-7.920;2023-03-05T06:20:57;6.53;;;2.40;;
60873;SDS011;46715;40.642;-7.920;2023-03-05T06:23:03;3.60;;;2.33;;
60873;SDS011;46715;40.642;-7.920;2023-03-05T06:25:07;4.83;;;2.40;;
60873;SDS011;46715;40.642;-7.920;2023-03-05T06:27:09;3.63;;;2.40;;
60873;SDS011;46715;40.642;-7.920;2023-03-05T06:29:10;4.30;;;2.50;;
60873;SDS011;46715;40.642;-7.920;2023-03-05T06:31:12;2.50;;;2.23;;
60873;SDS011;46715;40.642;-7.920;2023-03-05T06:33:16;3.42;;;2.50;;
60873;SDS011;46715;40.642;-7.920;2023-03-05T06:35:17;3.80;;;2.33;;
60873;SDS011;46715;40.642;-7.920;2023-03-05T06:37:18;3.37;;;2.30;;
60873;SDS011;46715;40.642;-7.920;2023-03-05T06:39:19;3.55;;;2.60;;
60873;SDS011;46715;40.642;-7.920;2023-03-05T06:41:24;3.40;;;1.87;;
60873;SDS011;46715;40.642;-7.920;2023-03-05T06:43:27;3.88;;;2.75;;
60873;SDS011;46715;40.642;-7.920;2023-03-05T06:45:28;3.53;;;2.30;;
60873;SDS011;46715;40.642;-7.920;2023-03-05T06:47:28;3.33;;;2.37;;
60873;SDS011;46715;40.642;-7.920;2023-03-05T06:49:30;4.03;;;2.40;;
60873;SDS011;46715;40.642;-7.920;2023-03-05T06:51:33;3.05;;;2.40;;
60873;SDS011;46715;40.642;-7.920;2023-03-05T06:53:35;6.88;;;2.80;;
60873;SDS011;46715;40.642;-7.920;2023-03-05T06:55:36;4.93;;;2.60;;
60873;SDS011;46715;40.642;-7.920;2023-03-05T06:57:38;4.93;;;2.40;;
60873;SDS011;46715;40.642;-7.920;2023-03-05T06:59:39;3.37;;;2.20;;
60873;SDS011;46715;40.642;-7.920;2023-03-05T07:01:40;4.13;;;2.17;;
60873;SDS011;46715;40.642;-7.920;2023-03-05T07:03:42;3.53;;;2.60;;
60873;SDS011;46715;40.642;-7.920;2023-03-05T07:05:43;3.70;;;2.40;;
60873;SDS011;46715;40.642;-7.920;2023-03-05T07:07:44;3.05;;;2.22;;
60873;SDS011;46715;40.642;-7.920;2023-03-05T07:09:44;5.57;;;2.97;;
60873;SDS011;46715;40.642;-7.920;2023-03-05T07:11:47;4.22;;;2.20;;
60873;SDS011;46715;40.642;-7.920;2023-03-05T07:13:48;4.27;;;3.03;;
60873;SDS011;46715;40.642;-7.920;2023-03-05T07:15:50;4.13;;;2.80;;
60873;SDS011;46715;40.642;-7.920;2023-03-05T07:17:50;5.07;;;2.73;;
60873;SDS011;46715;40.642;-7.920;2023-03-05T07:19:51;6.20;;;2.90;;
60873;SDS011;46715;40.642;-7.920;2023-03-05T07:21:52;4.17;;;2.80;;
60873;SDS011;46715;40.642;-7.920;2023-03-05T07:23:53;5.17;;;2.63;;
60873;SDS011;46715;40.642;-7.920;2023-03-05T07:25:55;4.13;;;2.53;;
60873;SDS011;46715;40.642;-7.920;2023-03-05T07:27:56;4.10;;;2.90;;
60873;SDS011;46715;40.642;-7.920;2023-03-05T07:30:06;5.17;;;2.80;;
60873;SDS011;46715;40.642;-7.920;2023-03-05T07:32:08;3.53;;;2.72;;
60873;SDS011;46715;40.642;-7.920;2023-03-05T07:34:08;6.27;;;2.90;;
60873;SDS011;46715;40.642;-7.920;2023-03-05T07:36:10;4.03;;;3.07;;
60873;SDS011;46715;40.642;-7.920;2023-03-05T07:38:12;4.15;;;2.85;;
60873;SDS011;46715;40.642;-7.920;2023-03-05T07:40:13;3.83;;;2.85;;
60873;SDS011;46715;40.642;-7.920;2023-03-05T07:42:13;4.20;;;3.00;;
60873;SDS011;46715;40.642;-7.920;2023-03-05T07:44:27;5.85;;;3.30;;
60873;SDS011;46715;40.642;-7.920;2023-03-05T07:46:31;5.10;;;3.10;;
60873;SDS011;46715;40.642;-7.920;2023-03-05T07:48:33;6.97;;;2.97;;
60873;SDS011;46715;40.642;-7.920;2023-03-05T07:50:36;6.30;;;3.23;;
60873;SDS011;46715;40.642;-7.920;2023-03-05T07:52:37;5.07;;;3.10;;
60873;SDS011;46715;40.642;-7.920;2023-03-05T07:54:38;4.00;;;2.90;;
60873;SDS011;46715;40.642;-7.920;2023-03-05T07:56:38;4.10;;;3.13;;
60873;SDS011;46715;40.642;-7.920;2023-03-05T07:58:39;4.97;;;3.13;;
60873;SDS011;46715;40.642;-7.920;2023-03-05T08:00:40;4.55;;;2.92;;
60873;SDS011;46715;40.642;-7.920;2023-03-05T08:02:41;3.83;;;2.67;;
60873;SDS011;46715;40.642;-7.920;2023-03-05T08:04:42;5.47;;;3.57;;
60873;SDS011;46715;40.642;-7.920;2023-03-05T08:06:43;8.47;;;3.07;;
60873;SDS011;46715;40.642;-7.920;2023-03-05T08:08:46;7.70;;;3.60;;
60873;SDS011;46715;40.642;-7.920;2023-03-05T08:10:46;6.37;;;3.50;;
60873;SDS011;46715;40.642;-7.920;2023-03-05T08:12:47;7.17;;;4.50;;
60873;SDS011;46715;40.642;-7.920;2023-03-05T08:14:48;6.80;;;4.43;;
60873;SDS011;46715;40.642;-7.920;2023-03-05T08:16:50;9.00;;;4.30;;
60873;SDS011;46715;40.642;-7.920;2023-03-05T08:18:55;4.10;;;3.60;;
60873;SDS011;46715;40.642;-7.920;2023-03-05T08:20:56;6.78;;;4.38;;
60873;SDS011;46715;40.642;-7.920;2023-03-05T08:22:57;7.30;;;4.53;;
60873;SDS011;46715;40.642;-7.920;2023-03-05T08:24:58;8.93;;;4.63;;
60873;SDS011;46715;40.642;-7.920;2023-03-05T08:27:00;9.93;;;5.05;;
60873;SDS011;46715;40.642;-7.920;2023-03-05T08:29:00;9.67;;;6.23;;
60873;SDS011;46715;40.642;-7.920;2023-03-05T08:31:02;8.93;;;5.63;;
60873;SDS011;46715;40.642;-7.920;2023-03-05T08:33:08;8.93;;;5.60;;
60873;SDS011;46715;40.642;-7.920;2023-03-05T08:35:09;8.87;;;5.47;;
60873;SDS011;46715;40.642;-7.920;2023-03-05T08:37:10;11.80;;;6.23;;
60873;SDS011;46715;40.642;-7.920;2023-03-05T08:39:10;7.77;;;5.10;;
60873;SDS011;46715;40.642;-7.920;2023-03-05T08:41:12;7.93;;;5.43;;
60873;SDS011;46715;40.642;-7.920;2023-03-05T08:43:12;9.37;;;5.30;;
60873;SDS011;46715;40.642;-7.920;2023-03-05T08:45:14;10.75;;;6.03;;
60873;SDS011;46715;40.642;-7.920;2023-03-05T08:47:15;6.60;;;5.53;;
60873;SDS011;46715;40.642;-7.920;2023-03-05T08:49:17;7.72;;;5.03;;
60873;SDS011;46715;40.642;-7.920;2023-03-05T08:51:20;9.07;;;5.63;;
60873;SDS011;46715;40.642;-7.920;2023-03-05T08:53:24;7.38;;;5.45;;
60873;SDS011;46715;40.642;-7.920;2023-03-05T08:55:25;8.53;;;6.20;;
60873;SDS011;46715;40.642;-7.920;2023-03-05T08:57:26;10.00;;;5.77;;
60873;SDS011;46715;40.642;-7.920;2023-03-05T08:59:26;9.00;;;6.63;;
60873;SDS011;46715;40.642;-7.920;2023-03-05T09:01:28;10.90;;;7.27;;
60873;SDS011;46715;40.642;-7.920;2023-03-05T09:03:31;13.95;;;10.95;;
60873;SDS011;46715;40.642;-7.920;2023-03-05T09:05:32;17.98;;;12.13;;
60873;SDS011;46715;40.642;-7.920;2023-03-05T09:07:32;15.77;;;10.90;;
60873;SDS011;46715;40.642;-7.920;2023-03-05T09:09:35;14.45;;;11.10;;
60873;SDS011;46715;40.642;-7.920;2023-03-05T09:11:36;15.23;;;11.02;;
60873;SDS011;46715;40.642;-7.920;2023-03-05T09:13:37;16.83;;;12.65;;
60873;SDS011;46715;40.642;-7.920;2023-03-05T09:15:38;16.13;;;12.40;;
60873;SDS011;46715;40.642;-7.920;2023-03-05T09:17:39;17.47;;;12.23;;
60873;SDS011;46715;40.642;-7.920;2023-03-05T09:21:42;12.63;;;10.00;;
60873;SDS011;46715;40.642;-7.920;2023-03-05T09:23:43;8.93;;;7.10;;
60873;SDS011;46715;40.642;-7.920;2023-03-05T09:25:44;10.98;;;8.27;;
60873;SDS011;46715;40.642;-7.920;2023-03-05T09:27:45;9.00;;;8.00;;
60873;SDS011;46715;40.642;-7.920;2023-03-05T09:29:46;12.17;;;9.33;;
60873;SDS011;46715;40.642;-7.920;2023-03-05T09:31:49;11.97;;;9.33;;
60873;SDS011;46715;40.642;-7.920;2023-03-05T09:33:50;11.63;;;9.10;;
60873;SDS011;46715;40.642;-7.920;2023-03-05T09:35:51;11.90;;;8.57;;
60873;SDS011;46715;40.642;-7.920;2023-03-05T09:37:52;12.43;;;8.90;;
60873;SDS011;46715;40.642;-7.920;2023-03-05T09:39:53;16.30;;;9.23;;
60873;SDS011;46715;40.642;-7.920;2023-03-05T09:51:16;11.35;;;7.78;;
60873;SDS011;46715;40.642;-7.920;2023-03-05T09:55:45;8.48;;;6.95;;
60873;SDS011;46715;40.642;-7.920;2023-03-05T09:57:50;10.75;;;7.75;;
60873;SDS011;46715;40.642;-7.920;2023-03-05T09:59:57;10.15;;;7.78;;
60873;SDS011;46715;40.642;-7.920;2023-03-05T10:02:33;9.68;;;6.82;;
60873;SDS011;46715;40.642;-7.920;2023-03-05T10:04:41;9.30;;;7.22;;
60873;SDS011;46715;40.642;-7.920;2023-03-05T10:06:55;11.98;;;7.88;;
60873;SDS011;46715;40.642;-7.920;2023-03-05T10:11:19;10.32;;;8.15;;
60873;SDS011;46715;40.642;-7.920;2023-03-05T10:13:41;12.27;;;8.80;;
60873;SDS011;46715;40.642;-7.920;2023-03-05T10:18:37;12.48;;;10.20;;
60873;SDS011;46715;40.642;-7.920;2023-03-05T10:20:26;11.30;;;9.13;;
60873;SDS011;46715;40.642;-7.920;2023-03-05T10:22:41;13.05;;;9.88;;
60873;SDS011;46715;40.642;-7.920;2023-03-05T10:27:18;13.65;;;9.50;;
60873;SDS011;46715;40.642;-7.920;2023-03-05T10:36:58;8.45;;;6.63;;
60873;SDS011;46715;40.642;-7.920;2023-03-05T10:39:30;7.68;;;6.00;;
60873;SDS011;46715;40.642;-7.920;2023-03-05T10:46:31;8.95;;;5.85;;
60873;SDS011;46715;40.642;-7.920;2023-03-05T10:51:09;9.20;;;6.38;;
60873;SDS011;46715;40.642;-7.920;2023-03-05T10:53:18;12.50;;;7.05;;
60873;SDS011;46715;40.642;-7.920;2023-03-05T10:55:28;8.45;;;6.72;;
60873;SDS011;46715;40.642;-7.920;2023-03-05T10:57:32;10.60;;;7.53;;
60873;SDS011;46715;40.642;-7.920;2023-03-05T10:59:33;10.02;;;7.03;;
60873;SDS011;46715;40.642;-7.920;2023-03-05T11:01:34;13.20;;;7.03;;
60873;SDS011;46715;40.642;-7.920;2023-03-05T11:03:46;9.38;;;6.55;;
60873;SDS011;46715;40.642;-7.920;2023-03-05T11:05:52;9.98;;;7.30;;
60873;SDS011;46715;40.642;-7.920;2023-03-05T11:08:02;8.50;;;5.95;;
60873;SDS011;46715;40.642;-7.920;2023-03-05T11:10:23;7.28;;;6.32;;
60873;SDS011;46715;40.642;-7.920;2023-03-05T11:12:27;10.60;;;7.30;;
60873;SDS011;46715;40.642;-7.920;2023-03-05T11:14:31;10.48;;;6.90;;
60873;SDS011;46715;40.642;-7.920;2023-03-05T11:16:33;9.98;;;8.25;;
60873;SDS011;46715;40.642;-7.920;2023-03-05T11:18:47;12.00;;;8.50;;
60873;SDS011;46715;40.642;-7.920;2023-03-05T11:20:48;9.48;;;7.15;;
60873;SDS011;46715;40.642;-7.920;2023-03-05T11:25:15;8.93;;;6.22;;
60873;SDS011;46715;40.642;-7.920;2023-03-05T11:27:22;9.05;;;6.68;;
60873;SDS011;46715;40.642;-7.920;2023-03-05T11:29:30;10.35;;;6.88;;
60873;SDS011;46715;40.642;-7.920;2023-03-05T11:31:34;8.45;;;5.53;;
60873;SDS011;46715;40.642;-7.920;2023-03-05T11:33:35;7.20;;;4.60;;
60873;SDS011;46715;40.642;-7.920;2023-03-05T11:35:39;6.55;;;4.75;;
60873;SDS011;46715;40.642;-7.920;2023-03-05T11:37:41;6.40;;;4.75;;
60873;SDS011;46715;40.642;-7.920;2023-03-05T11:39:41;8.10;;;5.33;;
60873;SDS011;46715;40.642;-7.920;2023-03-05T11:41:44;9.23;;;5.03;;
60873;SDS011;46715;40.642;-7.920;2023-03-05T11:43:47;8.43;;;4.78;;
60873;SDS011;46715;40.642;-7.920;2023-03-05T11:46:01;5.80;;;3.92;;
60873;SDS011;46715;40.642;-7.920;2023-03-05T11:48:08;7.30;;;4.47;;
60873;SDS011;46715;40.642;-7.920;2023-03-05T11:52:23;7.63;;;4.77;;
60873;SDS011;46715;40.642;-7.920;2023-03-05T11:54:35;9.85;;;5.45;;
60873;SDS011;46715;40.642;-7.920;2023-03-05T11:56:46;7.63;;;5.15;;
60873;SDS011;46715;40.642;-7.920;2023-03-05T12:01:09;5.22;;;4.18;;
60873;SDS011;46715;40.642;-7.920;2023-03-05T12:03:16;5.13;;;3.83;;
60873;SDS011;46715;40.642;-7.920;2023-03-05T12:05:20;7.05;;;4.40;;
60873;SDS011;46715;40.642;-7.920;2023-03-05T12:07:25;7.70;;;4.57;;
60873;SDS011;46715;40.642;-7.920;2023-03-05T12:09:43;7.97;;;4.63;;
60873;SDS011;46715;40.642;-7.920;2023-03-05T12:11:49;7.10;;;4.55;;
60873;SDS011;46715;40.642;-7.920;2023-03-05T12:14:01;6.43;;;4.38;;
60873;SDS011;46715;40.642;-7.920;2023-03-05T12:22:43;5.80;;;4.07;;
60873;SDS011;46715;40.642;-7.920;2023-03-05T12:24:44;7.38;;;4.10;;
60873;SDS011;46715;40.642;-7.920;2023-03-05T12:26:53;7.03;;;3.97;;
60873;SDS011;46715;40.642;-7.920;2023-03-05T12:29:02;4.30;;;3.28;;
60873;SDS011;46715;40.642;-7.920;2023-03-05T12:31:26;6.20;;;4.10;;
60873;SDS011;46715;40.642;-7.920;2023-03-05T12:33:37;6.70;;;4.25;;
60873;SDS011;46715;40.642;-7.920;2023-03-05T12:35:41;7.35;;;3.88;;
60873;SDS011;46715;40.642;-7.920;2023-03-05T12:40:01;7.00;;;3.10;;
60873;SDS011;46715;40.642;-7.920;2023-03-05T12:44:29;4.85;;;2.53;;
60873;SDS011;46715;40.642;-7.920;2023-03-05T12:46:30;4.20;;;2.00;;
60873;SDS011;46715;40.642;-7.920;2023-03-05T12:48:40;3.30;;;2.58;;
60873;SDS011;46715;40.642;-7.920;2023-03-05T12:52:44;3.03;;;2.13;;
60873;SDS011;46715;40.642;-7.920;2023-03-05T12:54:46;3.45;;;2.35;;
60873;SDS011;46715;40.642;-7.920;2023-03-05T12:57:23;3.50;;;2.30;;
60873;SDS011;46715;40.642;-7.920;2023-03-05T12:59:28;5.70;;;1.80;;
60873;SDS011;46715;40.642;-7.920;2023-03-05T13:03:46;2.83;;;1.70;;
60873;SDS011;46715;40.642;-7.920;2023-03-05T13:05:59;2.72;;;1.83;;
60873;SDS011;46715;40.642;-7.920;2023-03-05T13:08:10;2.78;;;1.75;;
60873;SDS011;46715;40.642;-7.920;2023-03-05T13:10:34;3.53;;;2.00;;